Back to Top

Language: 

My Weather Underground Personal Weather Station Historical Data with Graphs...

Delerius Weather Station Historical Data
Daily Summary for February 5, 2017 Units:  English    Metric   Both
« Previous Day
Next Day »
Daily Weekly Monthly Yearly Custom
  High: Low: Average:
Temperature: 44.1 °F 32.6 °F 38.3 °F
Dew Point: 39.4 °F 30.7 °F 35.6 °F
Humidity: 96 % 78 % 90 %
Wind Speed: 6.0 mph 0.0 mph 1 mph
Wind Gust: 20.0 mph - -
Wind:- - South
Pressure: 29.98 in 29.45 in -
Precipitation: 0.00 in    
Historical Graphs
 
 
Tabular Data for February 5, 2017
Time Temperature Dew Point Pressure Wind Wind Speed Wind Gust Humidity Rainfall Rate (Hourly) solar Conditions
00:00 35.0 °F 32.6 °F 29.45 in Calm   20.0 mph 91 % 0.00 in 0 W/m2
00:05 34.9 °F 32.5 °F 29.45 in Calm   20.0 mph 91 % 0.00 in 0 W/m2
00:15 34.7 °F 32.3 °F 29.45 in Calm   2.0 mph 91 % 0.00 in 0 W/m2
00:20 34.6 °F 32.2 °F 29.45 in Calm     91 % 0.00 in 0 W/m2
00:25 34.4 °F 32.0 °F 29.45 in Calm     91 % 0.00 in 0 W/m2
00:35 34.2 °F 32.1 °F 29.45 in Calm     92 % 0.00 in 0 W/m2
00:40 34.2 °F 32.1 °F 29.45 in Calm     92 % 0.00 in 0 W/m2
00:45 34.1 °F 32.0 °F 29.46 in Calm     92 % 0.00 in 0 W/m2
00:50 33.9 °F 31.8 °F 29.46 in Calm     92 % 0.00 in 0 W/m2
00:55 33.7 °F 31.6 °F 29.45 in Calm     92 % 0.00 in 0 W/m2
01:05 34.2 °F 32.4 °F 29.45 in Calm   4.0 mph 93 % 0.00 in 0 W/m2
01:10 34.4 °F 32.6 °F 29.45 in Calm   4.0 mph 93 % 0.00 in 0 W/m2
01:15 34.7 °F 32.9 °F 29.45 in Calm   4.0 mph 93 % 0.00 in 0 W/m2
01:20 35.0 °F 33.4 °F 29.45 in SE 1.0 mph 4.0 mph 94 % 0.00 in 0 W/m2
01:25 35.2 °F 33.4 °F 29.45 in Calm   4.0 mph 93 % 0.00 in 0 W/m2
01:30 35.3 °F 33.5 °F 29.45 in SE 1.0 mph 4.0 mph 93 % 0.00 in 0 W/m2
01:40 35.6 °F 33.8 °F 29.46 in SE 2.0 mph 4.0 mph 93 % 0.00 in 0 W/m2
01:45 35.7 °F 33.9 °F 29.46 in SE 3.0 mph 4.0 mph 93 % 0.00 in 0 W/m2
01:50 35.8 °F 34.0 °F 29.46 in SE 4.0 mph 4.0 mph 93 % 0.00 in 0 W/m2
01:55 35.9 °F 34.1 °F 29.46 in SE 4.0 mph 4.0 mph 93 % 0.00 in 0 W/m2
02:00 36.0 °F 34.2 °F 29.46 in SE 4.0 mph 4.0 mph 93 % 0.00 in 0 W/m2
02:10 36.1 °F 34.3 °F 29.46 in ESE 4.0 mph 6.0 mph 93 % 0.00 in 0 W/m2
02:15 36.3 °F 34.5 °F 29.46 in SE 4.0 mph 6.0 mph 93 % 0.00 in 0 W/m2
02:20 36.4 °F 34.6 °F 29.46 in SE 5.0 mph 5.0 mph 93 % 0.00 in 0 W/m2
02:25 36.4 °F 34.6 °F 29.46 in SE 6.0 mph 6.0 mph 93 % 0.00 in 0 W/m2
02:30 36.4 °F 34.6 °F 29.46 in SE 6.0 mph 6.0 mph 93 % 0.00 in 0 W/m2
02:35 36.4 °F 34.6 °F 29.46 in SE 5.0 mph 6.0 mph 93 % 0.00 in 0 W/m2
02:45 36.3 °F 34.5 °F 29.46 in ESE 3.0 mph 4.0 mph 93 % 0.00 in 0 W/m2
02:50 36.3 °F 34.7 °F 29.46 in SE 3.0 mph 5.0 mph 94 % 0.00 in 0 W/m2
02:55 36.3 °F 34.7 °F 29.46 in SE 4.0 mph 5.0 mph 94 % 0.00 in 0 W/m2
03:00 36.3 °F 34.7 °F 29.47 in SE 5.0 mph 5.0 mph 94 % 0.00 in 0 W/m2
03:05 36.3 °F 34.7 °F 29.47 in SE 5.0 mph 6.0 mph 94 % 0.00 in 0 W/m2
03:15 36.4 °F 34.8 °F 29.46 in ESE 6.0 mph 8.0 mph 94 % 0.00 in 0 W/m2
03:20 36.4 °F 34.8 °F 29.47 in SE 6.0 mph 6.0 mph 94 % 0.00 in 0 W/m2
03:25 36.5 °F 34.9 °F 29.46 in SE 6.0 mph 6.0 mph 94 % 0.00 in 0 W/m2
03:30 36.5 °F 34.9 °F 29.46 in SE 5.0 mph 5.0 mph 94 % 0.00 in 0 W/m2
03:35 36.5 °F 34.9 °F 29.46 in SE 6.0 mph 6.0 mph 94 % 0.00 in 0 W/m2
03:40 36.6 °F 35.0 °F 29.46 in SE 6.0 mph 6.0 mph 94 % 0.00 in 0 W/m2
03:50 36.7 °F 35.4 °F 29.47 in SSE 5.0 mph 5.0 mph 95 % 0.00 in 0 W/m2
03:55 36.7 °F 35.4 °F 29.47 in South 3.0 mph 5.0 mph 95 % 0.00 in 0 W/m2
04:00 36.7 °F 35.4 °F 29.47 in SSE 2.0 mph 4.0 mph 95 % 0.00 in 0 W/m2
04:05 36.8 °F 35.5 °F 29.47 in SSE 2.0 mph 4.0 mph 95 % 0.00 in 0 W/m2
04:10 36.8 °F 35.5 °F 29.48 in Calm   4.0 mph 95 % 0.00 in 0 W/m2
04:20 36.8 °F 35.5 °F 29.48 in Calm   4.0 mph 95 % 0.00 in 0 W/m2
04:25 36.9 °F 35.6 °F 29.47 in Calm   4.0 mph 95 % 0.00 in 0 W/m2
04:30 36.9 °F 35.3 °F 29.47 in Calm   4.0 mph 94 % 0.00 in 0 W/m2
04:40 36.9 °F 35.3 °F 29.48 in Calm   4.0 mph 94 % 0.00 in 0 W/m2
04:45 36.9 °F 35.6 °F 29.49 in Calm   4.0 mph 95 % 0.00 in 0 W/m2
04:55 37.1 °F 35.8 °F 29.49 in SE 5.0 mph 8.0 mph 95 % 0.00 in 0 W/m2
05:00 37.2 °F 35.9 °F 29.49 in SE 4.0 mph 4.0 mph 95 % 0.00 in 0 W/m2
05:05 37.1 °F 35.5 °F 29.49 in SE 2.0 mph 4.0 mph 94 % 0.00 in 0 W/m2
05:10 37.1 °F 35.5 °F 29.50 in ESE 2.0 mph 4.0 mph 94 % 0.00 in 0 W/m2
05:15 37.0 °F 35.4 °F 29.50 in ESE 3.0 mph 4.0 mph 94 % 0.00 in 0 W/m2
05:25 37.1 °F 35.8 °F 29.50 in ESE 1.0 mph 4.0 mph 95 % 0.00 in 0 W/m2
05:30 37.1 °F 35.5 °F 29.50 in Calm   4.0 mph 94 % 0.00 in 0 W/m2
05:35 37.1 °F 35.8 °F 29.50 in Calm   4.0 mph 95 % 0.00 in 0 W/m2
05:40 37.1 °F 35.5 °F 29.50 in Calm   4.0 mph 94 % 0.00 in 0 W/m2
05:45 37.1 °F 35.8 °F 29.50 in Calm   4.0 mph 95 % 0.00 in 0 W/m2
05:50 37.2 °F 35.9 °F 29.50 in Calm   4.0 mph 95 % 0.00 in 0 W/m2
06:00 37.4 °F 36.1 °F 29.50 in SSE 1.0 mph 1.0 mph 95 % 0.00 in 0 W/m2
06:05 37.4 °F 36.1 °F 29.50 in Calm   4.0 mph 95 % 0.00 in 0 W/m2
06:10 37.4 °F 36.1 °F 29.51 in Calm   4.0 mph 95 % 0.00 in 0 W/m2
06:15 37.4 °F 36.1 °F 29.51 in Calm   4.0 mph 95 % 0.00 in 0 W/m2
06:20 37.4 °F 36.1 °F 29.51 in Calm   4.0 mph 95 % 0.00 in 0 W/m2
06:30 37.4 °F 36.1 °F 29.52 in Calm   4.0 mph 95 % 0.00 in 0 W/m2
06:35 37.3 °F 36.0 °F 29.52 in Calm   4.0 mph 95 % 0.00 in 0 W/m2
06:40 37.4 °F 36.1 °F 29.52 in Calm   4.0 mph 95 % 0.00 in 0 W/m2
06:45 37.3 °F 36.0 °F 29.52 in Calm   4.0 mph 95 % 0.00 in 0 W/m2
06:50 37.4 °F 36.1 °F 29.53 in Calm   4.0 mph 95 % 0.00 in 0 W/m2
06:55 37.4 °F 36.1 °F 29.53 in Calm   4.0 mph 95 % 0.00 in 0 W/m2
07:05 37.4 °F 36.1 °F 29.53 in Calm   4.0 mph 95 % 0.00 in 0 W/m2
07:10 37.4 °F 36.1 °F 29.53 in Calm   4.0 mph 95 % 0.00 in 0 W/m2
07:15 37.4 °F 36.1 °F 29.53 in Calm   4.0 mph 95 % 0.00 in 0 W/m2
07:20 37.4 °F 36.1 °F 29.54 in Calm   4.0 mph 95 % 0.00 in 0 W/m2
07:25 37.5 °F 36.2 °F 29.54 in Calm   4.0 mph 95 % 0.00 in 0 W/m2
07:35 37.6 °F 36.3 °F 29.54 in Calm   4.0 mph 95 % 0.00 in 0 W/m2
07:40 37.6 °F 36.3 °F 29.54 in Calm   5.0 mph 95 % 0.00 in 0 W/m2
07:45 37.5 °F 36.2 °F 29.55 in SSE 1.0 mph 5.0 mph 95 % 0.00 in 0 W/m2
07:55 37.4 °F 36.1 °F 29.55 in Calm   4.0 mph 95 % 0.00 in 5 W/m2
08:00 37.4 °F 36.1 °F 29.55 in Calm   4.0 mph 95 % 0.00 in 7 W/m2
08:05 37.3 °F 36.0 °F 29.55 in Calm   4.0 mph 95 % 0.00 in 9 W/m2
08:10 37.3 °F 36.0 °F 29.56 in SSE 1.0 mph 4.0 mph 95 % 0.00 in 12 W/m2
08:20 37.5 °F 36.2 °F 29.56 in SSE 1.0 mph 4.0 mph 95 % 0.00 in 18 W/m2
08:25 37.5 °F 36.2 °F 29.57 in West 2.0 mph 4.0 mph 95 % 0.00 in 19 W/m2
08:30 37.5 °F 36.2 °F 29.57 in West 2.0 mph 2.0 mph 95 % 0.00 in 23 W/m2
08:35 37.5 °F 36.2 °F 29.57 in Calm   4.0 mph 95 % 0.00 in 21 W/m2
08:40 37.6 °F 36.3 °F 29.57 in Calm   4.0 mph 95 % 0.00 in 23 W/m2
08:45 37.6 °F 36.6 °F 29.58 in East 1.0 mph 4.0 mph 96 % 0.00 in 28 W/m2
08:55 37.7 °F 36.4 °F 29.58 in East 1.0 mph 4.0 mph 95 % 0.00 in 37 W/m2
09:00 37.8 °F 36.5 °F 29.58 in East 1.0 mph 1.0 mph 95 % 0.00 in 40 W/m2
09:05 37.9 °F 36.9 °F 29.58 in East 1.0 mph 2.0 mph 96 % 0.00 in 42 W/m2
09:15 38.0 °F 37.0 °F 29.59 in Calm   4.0 mph 96 % 0.00 in 47 W/m2
09:20 38.1 °F 36.8 °F 29.59 in Calm   4.0 mph 95 % 0.00 in 51 W/m2
09:25 38.2 °F 36.9 °F 29.59 in Calm   4.0 mph 95 % 0.00 in 54 W/m2
09:30 38.3 °F 37.3 °F 29.60 in Calm   4.0 mph 96 % 0.00 in 53 W/m2
09:35 38.3 °F 37.3 °F 29.60 in East 1.0 mph 4.0 mph 96 % 0.00 in 60 W/m2
09:40 38.4 °F 37.4 °F 29.60 in East 1.0 mph 1.0 mph 96 % 0.00 in 67 W/m2
09:50 38.6 °F 37.3 °F 29.61 in Calm   4.0 mph 95 % 0.00 in 72 W/m2
09:55 38.8 °F 37.5 °F 29.61 in Calm   4.0 mph 95 % 0.00 in 83 W/m2
10:00 39.0 °F 38.0 °F 29.61 in Calm   4.0 mph 96 % 0.00 in 88 W/m2
10:05 39.2 °F 37.9 °F 29.61 in Calm   4.0 mph 95 % 0.00 in 95 W/m2
10:10 39.4 °F 38.1 °F 29.61 in Calm   4.0 mph 95 % 0.00 in 97 W/m2
10:20 39.7 °F 38.4 °F 29.62 in Calm   4.0 mph 95 % 0.00 in 97 W/m2
10:25 39.7 °F 38.1 °F 29.62 in NE 1.0 mph 4.0 mph 94 % 0.00 in 114 W/m2
10:30 39.8 °F 38.2 °F 29.62 in NE 2.0 mph 4.0 mph 94 % 0.00 in 132 W/m2
10:35 39.9 °F 38.3 °F 29.63 in NNW 1.0 mph 4.0 mph 94 % 0.00 in 137 W/m2
10:40 40.1 °F 38.2 °F 29.63 in NNW 1.0 mph 1.0 mph 93 % 0.00 in 134 W/m2
10:45 40.3 °F 38.4 °F 29.63 in Calm   4.0 mph 93 % 0.00 in 127 W/m2
10:55 40.7 °F 38.8 °F 29.63 in Calm   4.0 mph 93 % 0.00 in 169 W/m2
11:00 40.8 °F 38.7 °F 29.63 in ENE 1.0 mph 1.0 mph 92 % 0.00 in 174 W/m2
11:05 41.0 °F 38.9 °F 29.63 in NNE 1.0 mph 5.0 mph 92 % 0.00 in 181 W/m2
11:10 41.1 °F 38.7 °F 29.64 in NNE 2.0 mph 4.0 mph 91 % 0.00 in 218 W/m2
11:15 41.3 °F 38.9 °F 29.64 in NNE 2.0 mph 4.0 mph 91 % 0.00 in 473 W/m2
11:25 42.1 °F 39.1 °F 29.64 in NNW 2.0 mph 6.0 mph 89 % 0.00 in 192 W/m2
11:30 42.4 °F 39.4 °F 29.64 in NW 2.0 mph 4.0 mph 89 % 0.00 in 192 W/m2
11:35 42.6 °F 39.3 °F 29.64 in NW 2.0 mph 4.0 mph 88 % 0.00 in 156 W/m2
11:40 42.6 °F 38.7 °F 29.65 in NW 2.0 mph 2.0 mph 86 % 0.00 in 153 W/m2
11:45 42.6 °F 38.7 °F 29.65 in NW 1.0 mph 4.0 mph 86 % 0.00 in 139 W/m2
11:50 42.6 °F 38.7 °F 29.65 in NW 1.0 mph 4.0 mph 86 % 0.00 in 144 W/m2
12:00 42.7 °F 38.8 °F 29.66 in NE 1.0 mph 4.0 mph 86 % 0.00 in 172 W/m2
12:05 42.8 °F 38.9 °F 29.66 in NNE 1.0 mph 4.0 mph 86 % 0.00 in 172 W/m2
12:10 42.8 °F 38.6 °F 29.66 in NNE 2.0 mph 2.0 mph 85 % 0.00 in 158 W/m2
12:15 42.8 °F 38.6 °F 29.67 in NNE 1.0 mph 4.0 mph 85 % 0.00 in 142 W/m2
12:20 42.8 °F 38.6 °F 29.67 in NNE 1.0 mph 1.0 mph 85 % 0.00 in 134 W/m2
12:30 42.8 °F 38.3 °F 29.67 in NNE 1.0 mph 1.0 mph 84 % 0.00 in 146 W/m2
12:35 43.0 °F 38.8 °F 29.67 in NNE 1.0 mph 4.0 mph 85 % 0.00 in 155 W/m2
12:45 42.9 °F 38.4 °F 29.68 in Calm   4.0 mph 84 % 0.00 in 155 W/m2
12:50 43.1 °F 38.6 °F 29.68 in Calm   4.0 mph 84 % 0.00 in 146 W/m2
12:55 43.2 °F 38.4 °F 29.68 in Calm   4.0 mph 83 % 0.00 in 165 W/m2
13:05 43.3 °F 38.5 °F 29.69 in NNE 1.0 mph 4.0 mph 83 % 0.00 in 199 W/m2
13:10 43.5 °F 38.7 °F 29.69 in NNE 1.0 mph 1.0 mph 83 % 0.00 in 186 W/m2
13:15 43.6 °F 38.5 °F 29.69 in NNE 1.0 mph 4.0 mph 82 % 0.00 in 153 W/m2
13:20 43.7 °F 38.3 °F 29.69 in Calm   4.0 mph 81 % 0.00 in 105 W/m2
13:25 43.8 °F 38.3 °F 29.70 in Calm   4.0 mph 81 % 0.00 in 134 W/m2
13:35 43.7 °F 37.9 °F 29.70 in NNE 1.0 mph 4.0 mph 80 % 0.00 in 155 W/m2
13:40 43.7 °F 37.9 °F 29.70 in NNE 1.0 mph 1.0 mph 80 % 0.00 in 128 W/m2
13:45 43.7 °F 37.9 °F 29.69 in NNE 1.0 mph 4.0 mph 80 % 0.00 in 127 W/m2
13:50 43.7 °F 37.9 °F 29.70 in North 1.0 mph 4.0 mph 80 % 0.00 in 239 W/m2
13:55 43.7 °F 37.9 °F 29.70 in North 1.0 mph 4.0 mph 80 % 0.00 in 179 W/m2
14:00 43.7 °F 37.9 °F 29.70 in NNW 1.0 mph 4.0 mph 80 % 0.00 in 118 W/m2
14:10 43.9 °F 38.4 °F 29.70 in NW 1.0 mph 1.0 mph 81 % 0.00 in 102 W/m2
14:15 44.0 °F 38.2 °F 29.70 in NW 1.0 mph 2.0 mph 80 % 0.00 in 104 W/m2
14:20 44.1 °F 38.3 °F 29.71 in NW 1.0 mph 1.0 mph 80 % 0.00 in 95 W/m2
14:25 44.1 °F 38.3 °F 29.71 in NW 1.0 mph 4.0 mph 80 % 0.00 in 81 W/m2
14:30 44.0 °F 38.2 °F 29.71 in NW 1.0 mph 4.0 mph 80 % 0.00 in 84 W/m2
14:40 43.8 °F 38.0 °F 29.71 in NW 3.0 mph 3.0 mph 80 % 0.00 in 86 W/m2
14:45 43.9 °F 38.1 °F 29.72 in NW 3.0 mph 5.0 mph 80 % 0.00 in 70 W/m2
14:50 43.8 °F 37.7 °F 29.72 in WNW 3.0 mph 3.0 mph 79 % 0.00 in 51 W/m2
14:55 43.7 °F 37.3 °F 29.73 in NW 4.0 mph 4.0 mph 78 % 0.00 in 39 W/m2
15:00 43.7 °F 37.3 °F 29.73 in NW 5.0 mph 5.0 mph 78 % 0.00 in 44 W/m2
15:05 43.7 °F 37.3 °F 29.73 in WNW 3.0 mph 5.0 mph 78 % 0.00 in 46 W/m2
15:15 43.7 °F 37.6 °F 29.74 in Calm   4.0 mph 79 % 0.00 in 40 W/m2
15:20 43.7 °F 37.3 °F 29.74 in Calm   4.0 mph 78 % 0.00 in 37 W/m2
15:25 43.8 °F 37.4 °F 29.74 in Calm   4.0 mph 78 % 0.00 in 32 W/m2
15:30 43.8 °F 37.4 °F 29.75 in Calm   4.0 mph 78 % 0.00 in 37 W/m2
15:35 43.8 °F 37.7 °F 29.75 in Calm   4.0 mph 79 % 0.00 in 35 W/m2
15:40 43.8 °F 37.4 °F 29.75 in Calm   4.0 mph 78 % 0.00 in 32 W/m2
15:50 43.8 °F 37.7 °F 29.76 in Calm   4.0 mph 79 % 0.00 in 30 W/m2
15:55 43.8 °F 37.7 °F 29.76 in Calm   4.0 mph 79 % 0.00 in 39 W/m2
16:00 43.7 °F 37.3 °F 29.76 in Calm   4.0 mph 78 % 0.00 in 37 W/m2
16:05 43.7 °F 37.3 °F 29.76 in Calm   4.0 mph 78 % 0.00 in 35 W/m2
16:10 43.7 °F 37.6 °F 29.76 in Calm   4.0 mph 79 % 0.00 in 28 W/m2
16:20 43.6 °F 37.5 °F 29.77 in Calm   4.0 mph 79 % 0.00 in 19 W/m2
16:25 43.6 °F 37.8 °F 29.77 in Calm   4.0 mph 80 % 0.00 in 19 W/m2
16:30 43.5 °F 37.7 °F 29.77 in Calm   4.0 mph 80 % 0.00 in 19 W/m2
16:35 43.5 °F 37.7 °F 29.77 in Calm   4.0 mph 80 % 0.00 in 18 W/m2
16:45 43.3 °F 37.5 °F 29.78 in Calm   4.0 mph 80 % 0.00 in 14 W/m2
16:50 43.2 °F 37.8 °F 29.78 in Calm   4.0 mph 81 % 0.00 in 9 W/m2
16:55 43.0 °F 37.6 °F 29.78 in Calm   4.0 mph 81 % 0.00 in 5 W/m2
17:05 42.5 °F 37.1 °F 29.79 in WNW 1.0 mph 4.0 mph 81 % 0.00 in 5 W/m2
17:10 42.3 °F 37.2 °F 29.79 in Calm   4.0 mph 82 % 0.00 in 0 W/m2
17:15 42.0 °F 36.9 °F 29.79 in Calm   4.0 mph 82 % 0.00 in 0 W/m2
17:20 41.7 °F 36.6 °F 29.80 in Calm   4.0 mph 82 % 0.00 in 0 W/m2
17:30 41.1 °F 36.3 °F 29.81 in WNW 1.0 mph 4.0 mph 83 % 0.00 in 0 W/m2
17:35 40.9 °F 36.1 °F 29.81 in WNW 2.0 mph 4.0 mph 83 % 0.00 in 0 W/m2
17:40 40.6 °F 35.8 °F 29.81 in WNW 1.0 mph 1.0 mph 83 % 0.00 in 0 W/m2
17:45 40.4 °F 35.6 °F 29.81 in Calm   4.0 mph 83 % 0.00 in 0 W/m2
17:50 40.1 °F 35.7 °F 29.82 in Calm   4.0 mph 84 % 0.00 in 0 W/m2
18:00 39.4 °F 35.3 °F 29.82 in Calm   4.0 mph 85 % 0.00 in 0 W/m2
18:05 39.1 °F 35.3 °F 29.83 in Calm   4.0 mph 86 % 0.00 in 0 W/m2
18:10 38.8 °F 35.0 °F 29.83 in Calm   4.0 mph 86 % 0.00 in 0 W/m2
18:15 38.5 °F 34.7 °F 29.83 in Calm   4.0 mph 86 % 0.00 in 0 W/m2
18:20 38.2 °F 34.7 °F 29.83 in Calm   4.0 mph 87 % 0.00 in 0 W/m2
18:25 38.0 °F 34.5 °F 29.84 in Calm   4.0 mph 87 % 0.00 in 0 W/m2
18:35 37.6 °F 34.4 °F 29.84 in Calm   4.0 mph 88 % 0.00 in 0 W/m2
18:40 37.5 °F 34.6 °F 29.84 in Calm   4.0 mph 89 % 0.00 in 0 W/m2
18:45 37.3 °F 34.4 °F 29.84 in Calm   4.0 mph 89 % 0.00 in 0 W/m2
18:50 37.1 °F 34.2 °F 29.85 in WNW 1.0 mph 4.0 mph 89 % 0.00 in 0 W/m2
18:55 37.1 °F 34.4 °F 29.85 in WNW 2.0 mph 4.0 mph 90 % 0.00 in 0 W/m2
19:05 37.2 °F 34.8 °F 29.85 in WNW 1.0 mph 4.0 mph 91 % 0.00 in 0 W/m2
19:10 37.2 °F 34.8 °F 29.85 in WNW 1.0 mph 1.0 mph 91 % 0.00 in 0 W/m2
19:15 37.1 °F 34.7 °F 29.85 in Calm   3.0 mph 91 % 0.00 in 0 W/m2
19:20 37.2 °F 34.8 °F 29.85 in WNW 1.0 mph 6.0 mph 91 % 0.00 in 0 W/m2
19:25 37.5 °F 35.1 °F 29.85 in NNW 2.0 mph 6.0 mph 91 % 0.00 in 0 W/m2
19:30 37.8 °F 35.4 °F 29.86 in NW 3.0 mph 5.0 mph 91 % 0.00 in 0 W/m2
19:40 38.1 °F 35.4 °F 29.86 in NW 3.0 mph 3.0 mph 90 % 0.00 in 0 W/m2
19:45 38.2 °F 35.5 °F 29.87 in NW 2.0 mph 4.0 mph 90 % 0.00 in 0 W/m2
19:50 38.2 °F 35.5 °F 29.87 in NW 1.0 mph 1.0 mph 90 % 0.00 in 0 W/m2
20:00 37.9 °F 34.9 °F 29.88 in Calm   4.0 mph 89 % 0.00 in 0 W/m2
20:05 37.7 °F 34.8 °F 29.88 in Calm   4.0 mph 89 % 0.00 in 0 W/m2
20:10 37.5 °F 34.6 °F 29.88 in Calm   4.0 mph 89 % 0.00 in 0 W/m2
20:20 37.2 °F 34.3 °F 29.89 in Calm   4.0 mph 89 % 0.00 in 0 W/m2
20:25 37.0 °F 34.3 °F 29.89 in Calm   4.0 mph 90 % 0.00 in 0 W/m2
20:30 37.0 °F 34.3 °F 29.90 in Calm   4.0 mph 90 % 0.00 in 0 W/m2
20:35 36.8 °F 34.1 °F 29.90 in Calm   4.0 mph 90 % 0.00 in 0 W/m2
20:45 36.5 °F 33.8 °F 29.91 in Calm   4.0 mph 90 % 0.00 in 0 W/m2
20:50 36.4 °F 33.7 °F 29.91 in Calm   4.0 mph 90 % 0.00 in 0 W/m2
20:55 36.2 °F 33.5 °F 29.92 in Calm   4.0 mph 90 % 0.00 in 0 W/m2
21:00 36.0 °F 33.4 °F 29.92 in Calm   4.0 mph 90 % 0.00 in 0 W/m2
21:05 35.9 °F 33.5 °F 29.92 in Calm   4.0 mph 91 % 0.00 in 0 W/m2
21:10 35.9 °F 33.5 °F 29.92 in Calm   4.0 mph 91 % 0.00 in 0 W/m2
21:20 35.7 °F 33.3 °F 29.93 in Calm   4.0 mph 91 % 0.00 in 0 W/m2
21:25 35.6 °F 33.2 °F 29.93 in Calm   4.0 mph 91 % 0.00 in 0 W/m2
21:30 35.4 °F 33.0 °F 29.94 in Calm   4.0 mph 91 % 0.00 in 0 W/m2
21:35 35.3 °F 33.2 °F 29.94 in Calm   4.0 mph 92 % 0.00 in 0 W/m2
21:40 35.2 °F 33.1 °F 29.94 in Calm   4.0 mph 92 % 0.00 in 0 W/m2
21:50 34.9 °F 32.8 °F 29.94 in Calm   4.0 mph 92 % 0.00 in 0 W/m2
21:55 34.6 °F 32.2 °F 29.94 in Calm   4.0 mph 91 % 0.00 in 0 W/m2
22:00 34.3 °F 32.2 °F 29.95 in Calm   4.0 mph 92 % 0.00 in 0 W/m2
22:05 34.0 °F 31.6 °F 29.95 in Calm   4.0 mph 91 % 0.00 in 0 W/m2
22:10 33.6 °F 31.3 °F 29.95 in Calm   4.0 mph 91 % 0.00 in 0 W/m2
22:15 33.4 °F 31.3 °F 29.95 in Calm   4.0 mph 92 % 0.00 in 0 W/m2
22:25 33.0 °F 30.9 °F 29.95 in Calm   4.0 mph 92 % 0.00 in 0 W/m2
22:30 32.8 °F 30.7 °F 29.96 in Calm   4.0 mph 92 % 0.00 in 0 W/m2
22:33 33.0 °F 31.2 °F 29.96 in Calm   -999.0 mph 93 % 0.00 in 0 W/m2
22:35 32.7 °F 30.9 °F 29.96 in Calm   4.0 mph 93 % 0.00 in 0 W/m2
22:40 32.6 °F 30.8 °F 29.96 in Calm   4.0 mph 93 % 0.00 in 0 W/m2
22:45 32.6 °F 30.8 °F 29.96 in Calm   4.0 mph 93 % 0.00 in 0 W/m2
22:50 32.7 °F 31.2 °F 29.96 in Calm   -999.0 mph 94 % 0.00 in 0 W/m2
22:55 32.9 °F 31.4 °F 29.96 in Calm   4.0 mph 94 % 0.00 in 0 W/m2
23:00 33.0 °F 31.5 °F 29.96 in Calm   4.0 mph 94 % 0.00 in 0 W/m2
23:05 33.1 °F 31.6 °F 29.97 in Calm   4.0 mph 94 % 0.00 in 0 W/m2
23:10 33.2 °F 31.9 °F 29.97 in Calm   -999.0 mph 95 % 0.00 in 0 W/m2
23:15 33.2 °F 31.9 °F 29.97 in Calm   -999.0 mph 95 % 0.00 in 0 W/m2
23:20 33.2 °F 31.9 °F 29.97 in Calm   -999.0 mph 95 % 0.00 in 0 W/m2
23:25 33.5 °F 32.0 °F 29.97 in Calm   -999.0 mph 94 % 0.00 in 0 W/m2
23:30 33.5 °F 32.0 °F 29.97 in Calm   -999.0 mph 94 % 0.00 in 0 W/m2
23:35 33.5 °F 32.0 °F 29.97 in Calm   -999.0 mph 94 % 0.00 in 0 W/m2
23:40 33.4 °F 31.9 °F 29.97 in Calm   -999.0 mph 94 % 0.00 in 0 W/m2
23:45 33.4 °F 31.9 °F 29.97 in Calm   -999.0 mph 94 % 0.00 in 0 W/m2
23:50 33.4 °F 31.9 °F 29.97 in Calm   -999.0 mph 94 % 0.00 in 0 W/m2
23:55 33.0 °F 31.5 °F 29.98 in Calm   -999.0 mph 94 % 0.00 in 0 W/m2
Delerius-Weather
Compliments of Weather Underground - 2 mb

Data updates at regular intervals.